Time;durP1;ratioP1;P1;durP2;ratioP2;P2;SDS_P1;SDS_P2;PMS_P1;PMS_P2;Temp;Humidity;BMP_temperature;BMP_pressure;BME280_temperature;BME280_humidity;BME280_pressure;Samples;Min_cycle;Max_cycle;Signal;HPM_P1;HPM_P2
2021/01/02 00:01:13;;;;;;;;;;;;;;;3.75;100.00;101197.84;5018080;28;19917;-73
2021/01/02 00:03:48;;;;;;;;;;;;;;;3.76;100.00;101191.59;5019949;28;19913;-72
2021/01/02 00:06:31;;;;;;;;;;;;;;;3.75;100.00;101197.84;5031744;28;19920;-72
2021/01/02 00:09:03;;;;;;;;;;;;;;;3.74;100.00;101190.84;5023785;28;20449;-73
2021/01/02 00:11:31;;;;;;;;;;;;;;;3.75;100.00;101196.97;5022047;28;19959;-73
2021/01/02 00:14:06;;;;;;;;;;;;;;;3.73;100.00;101199.72;5026901;28;20395;-73
2021/01/02 00:16:31;;;;;;;;;;;;;;;3.74;100.00;101198.78;5021737;28;19917;-73
2021/01/02 00:19:03;;;;;;;;;;;;;;;3.76;100.00;101207.44;5022428;28;19913;-70
2021/01/02 00:21:29;;;;;;;;;;;;;;;3.75;100.00;101199.59;5027943;28;19913;-71
2021/01/02 00:24:03;;;;;;;;;;;;;;;3.75;100.00;101213.66;5006845;28;19921;-71
2021/01/02 00:26:44;;;;;;;;;;;;;;;3.72;100.00;101215.66;5031824;28;19912;-70
2021/01/02 00:29:23;;;;;;;;;;;;;;;3.74;100.00;101206.69;5026831;28;20437;-71
2021/01/02 00:31:48;;;;;;;;;;;;;;;3.74;100.00;101205.84;5008386;28;19913;-71
2021/01/02 00:34:16;;;;;;;;;;;;;;;3.75;99.93;101205.75;5017989;28;19995;-70
2021/01/02 00:37:11;;;;;;;;;;;;;;;3.76;99.77;101204.81;5022685;28;20318;-71
2021/01/02 00:39:54;;;;;;;;;;;;;;;3.71;100.00;101209.53;5016886;28;19968;-70
2021/01/02 00:42:20;;;;;;;;;;;;;;;3.72;99.99;101207.75;4999361;28;19920;-71
2021/01/02 00:44:45;;;;;;;;;;;;;;;3.71;100.00;101209.53;4998144;28;19913;-70
2021/01/02 00:47:11;;;;;;;;;;;;;;;3.71;99.90;101216.63;4987210;28;20434;-71
2021/01/02 00:49:37;;;;;;;;;;;;;;;3.71;99.58;101208.69;5024890;28;19959;-70
2021/01/02 00:52:21;;;;;;;;;;;;;;;3.66;99.89;101215.09;5024253;28;19927;-71
2021/01/02 00:54:52;;;;;;;;;;;;;;;3.65;99.92;101205.50;5021298;28;19913;-71
2021/01/02 00:57:23;;;;;;;;;;;;;;;3.65;99.23;101216.06;5020189;28;19920;-71
2021/01/02 00:59:57;;;;;;;;;;;;;;;3.64;99.05;101210.88;5006616;28;19921;-71
2021/01/02 01:02:36;;;;;;;;;;;;;;;3.62;99.29;101213.59;5009511;28;19913;-71
2021/01/02 01:05:05;;;;;;;;;;;;;;;3.62;98.81;101216.25;5021689;28;19917;-71
2021/01/02 01:07:31;;;;;;;;;;;;;;;3.58;98.62;101211.25;5005416;28;19917;-71
2021/01/02 01:09:56;;;;;;;;;;;;;;;3.60;99.05;101215.50;5024519;28;19917;-71
2021/01/02 01:12:22;;;;;;;;;;;;;;;3.62;98.97;101210.13;5017120;28;19910;-71
2021/01/02 01:14:47;;;;;;;;;;;;;;;3.59;98.87;101211.19;5020881;28;20391;-71
2021/01/02 01:17:22;;;;;;;;;;;;;;;3.62;98.53;101218.06;5011838;28;19924;-72
2021/01/02 01:19:52;;;;;;;;;;;;;;;3.59;98.69;101211.19;5021448;28;19948;-71
2021/01/02 01:22:17;;;;;;;;;;;;;;;3.59;99.03;101213.81;5035316;28;20004;-71
2021/01/02 01:24:48;;;;;;;;;;;;;;;3.57;99.26;101222.75;5023176;28;20209;-71
2021/01/02 01:27:14;;;;;;;;;;;;;;;3.55;98.87;101224.66;5004503;28;19916;-71
2021/01/02 01:29:41;;;;;;;;;;;;;;;3.49;98.43;101233.81;5021622;28;19920;-71
2021/01/02 01:32:06;;;;;;;;;;;;;;;3.51;98.84;101232.78;5004531;28;19920;-71
2021/01/02 01:34:32;;;;;;;;;;;;;;;3.51;98.90;101232.78;5014511;28;20384;-71
2021/01/02 01:36:57;;;;;;;;;;;;;;;3.52;99.15;101236.25;5024702;28;19987;-71
2021/01/02 01:39:23;;;;;;;;;;;;;;;3.53;99.00;101240.59;5024046;28;19913;-71
2021/01/02 01:41:52;;;;;;;;;;;;;;;3.56;98.73;101236.91;5036584;28;19913;-74
2021/01/02 01:44:29;;;;;;;;;;;;;;;3.54;99.38;101237.00;5022419;28;20274;-71
2021/01/02 01:46:54;;;;;;;;;;;;;;;3.51;98.93;101235.44;5019952;28;19916;-71
2021/01/02 01:49:20;;;;;;;;;;;;;;;3.51;98.88;101240.69;5022643;28;19919;-71
2021/01/02 01:51:56;;;;;;;;;;;;;;;3.51;98.62;101239.84;5017492;28;19987;-71
2021/01/02 01:54:40;;;;;;;;;;;;;;;3.51;98.78;101245.13;5017805;28;19916;-71
2021/01/02 01:57:05;;;;;;;;;;;;;;;3.49;99.39;101242.59;5012961;28;19917;-71
2021/01/02 01:59:49;;;;;;;;;;;;;;;3.46;99.00;101241.94;5020816;28;19992;-71
2021/01/02 02:02:15;;;;;;;;;;;;;;;3.46;99.77;101239.31;5018727;28;20390;-71
2021/01/02 02:05:04;;;;;;;;;;;;;;;3.46;99.36;101239.31;5016435;28;19913;-71
2021/01/02 02:07:38;;;;;;;;;;;;;;;3.46;99.33;101236.66;5013661;28;19924;-71
2021/01/02 02:10:04;;;;;;;;;;;;;;;3.42;99.27;101233.34;5020731;28;19913;-71
2021/01/02 02:12:33;;;;;;;;;;;;;;;3.40;99.74;101232.59;5032968;28;19952;-71
2021/01/02 02:14:58;;;;;;;;;;;;;;;3.40;99.39;101239.69;5018336;28;19920;-71
2021/01/02 02:17:23;;;;;;;;;;;;;;;3.39;99.70;101232.69;5020184;28;20375;-71
2021/01/02 02:20:04;;;;;;;;;;;;;;;3.36;99.39;101233.75;5024229;28;20318;-71
2021/01/02 02:22:29;;;;;;;;;;;;;;;3.34;99.54;101233.81;5022949;28;19922;-72
2021/01/02 02:24:55;;;;;;;;;;;;;;;3.35;99.93;101232.88;5022846;28;20015;-71
2021/01/02 02:27:27;;;;;;;;;;;;;;;3.34;99.34;101240.91;5021670;28;19917;-71
2021/01/02 02:30:11;;;;;;;;;;;;;;;3.34;99.78;101241.75;4997943;28;19983;-71
2021/01/02 02:32:55;;;;;;;;;;;;;;;3.34;100.00;101235.63;5025725;28;19913;-71
2021/01/02 02:35:20;;;;;;;;;;;;;;;3.35;100.00;101247.88;5019184;28;20448;-71
2021/01/02 02:37:46;;;;;;;;;;;;;;;3.35;100.00;101239.97;5021392;28;19917;-71
2021/01/02 02:40:12;;;;;;;;;;;;;;;3.35;100.00;101239.97;5010505;28;19953;-71
2021/01/02 02:42:39;;;;;;;;;;;;;;;3.36;99.87;101244.31;5023190;28;19917;-71
2021/01/02 02:45:09;;;;;;;;;;;;;;;3.33;99.91;101240.03;4996895;28;20399;-71
2021/01/02 02:47:35;;;;;;;;;;;;;;;3.30;99.72;101242.03;5023743;28;19921;-71
2021/01/02 02:50:00;;;;;;;;;;;;;;;3.26;100.00;101244.03;4985636;28;19913;-71
2021/01/02 02:52:38;;;;;;;;;;;;;;;3.26;100.00;101251.09;5016410;28;19945;-71
2021/01/02 02:55:04;;;;;;;;;;;;;;;3.24;100.00;101247.72;5022521;28;19925;-71
2021/01/02 02:57:30;;;;;;;;;;;;;;;3.20;100.00;101249.66;5020027;28;20367;-72
2021/01/02 02:59:55;;;;;;;;;;;;;;;3.15;100.00;101246.50;5021755;28;20007;-71
2021/01/02 03:02:20;;;;;;;;;;;;;;;3.13;100.00;101246.56;5020792;28;20012;-72
2021/01/02 03:04:46;;;;;;;;;;;;;;;3.11;100.00;101244.97;5027922;28;20016;-71
2021/01/02 03:07:11;;;;;;;;;;;;;;;3.10;100.00;101238.88;5008273;28;20441;-71
2021/01/02 03:09:37;;;;;;;;;;;;;;;3.08;99.95;101242.53;5040623;28;19953;-71
2021/01/02 03:12:02;;;;;;;;;;;;;;;3.10;100.00;101243.28;5023801;28;19942;-71
2021/01/02 03:14:27;;;;;;;;;;;;;;;3.08;100.00;101247.78;5028747;28;19962;-77
2021/01/02 03:16:56;;;;;;;;;;;;;;;3.05;100.00;101248.84;5012914;28;19919;-75
2021/01/02 03:19:22;;;;;;;;;;;;;;;3.06;100.00;101248.72;5033270;28;19964;-71
2021/01/02 03:21:47;;;;;;;;;;;;;;;3.08;100.00;101253.94;5038274;28;20014;-71
2021/01/02 03:24:13;;;;;;;;;;;;;;;3.08;100.00;101259.19;5025982;28;20004;-72
2021/01/02 03:26:38;;;;;;;;;;;;;;;3.12;100.00;101252.78;5038207;28;19913;-71
2021/01/02 03:29:03;;;;;;;;;;;;;;;3.08;100.00;101258.34;5023736;28;19928;-71
2021/01/02 03:31:29;;;;;;;;;;;;;;;3.11;100.00;101260.78;5032171;28;19916;-71
2021/01/02 03:33:54;;;;;;;;;;;;;;;3.13;100.00;101258.91;5023977;28;20000;-71
2021/01/02 03:36:19;;;;;;;;;;;;;;;3.09;100.00;101262.69;5028123;28;19921;-71
2021/01/02 03:38:51;;;;;;;;;;;;;;;3.12;100.00;101259.84;5026657;28;19944;-71
2021/01/02 03:41:16;;;;;;;;;;;;;;;3.12;100.00;101262.50;5027683;28;19916;-71
2021/01/02 03:43:42;;;;;;;;;;;;;;;3.14;100.00;101260.63;5021547;28;19917;-71
2021/01/02 03:46:07;;;;;;;;;;;;;;;3.11;100.00;101263.44;5025278;28;20012;-71
2021/01/02 03:48:32;;;;;;;;;;;;;;;3.10;100.00;101256.47;5024815;28;20024;-71
2021/01/02 03:50:58;;;;;;;;;;;;;;;3.13;100.00;101253.63;5005152;28;20372;-71
2021/01/02 03:53:23;;;;;;;;;;;;;;;3.16;100.00;101259.56;5023510;28;20439;-71
2021/01/02 03:55:48;;;;;;;;;;;;;;;3.15;100.00;101247.31;5020116;28;19976;-71
2021/01/02 03:58:13;;;;;;;;;;;;;;;3.19;100.00;101254.09;5023604;28;19913;-71
2021/01/02 04:00:40;;;;;;;;;;;;;;;3.17;100.00;101253.34;5021765;28;19917;-71
2021/01/02 04:03:05;;;;;;;;;;;;;;;3.17;100.00;101257.78;5025341;28;19967;-71
2021/01/02 04:05:33;;;;;;;;;;;;;;;3.13;99.99;101253.63;5025104;28;20007;-71
2021/01/02 04:07:58;;;;;;;;;;;;;;;3.10;99.78;101253.81;5008600;28;19917;-72
2021/01/02 04:10:24;;;;;;;;;;;;;;;3.10;99.94;101246.78;5028139;28;19944;-72
2021/01/02 04:12:49;;;;;;;;;;;;;;;3.05;99.71;101252.31;5026904;28;19917;-72
2021/01/02 04:15:14;;;;;;;;;;;;;;;3.00;100.00;101248.25;5021979;28;20015;-72
2021/01/02 04:17:39;;;;;;;;;;;;;;;2.97;100.00;101251.94;5024969;28;19925;-77
2021/01/02 04:20:05;;;;;;;;;;;;;;;2.87;99.92;101259.56;5026143;28;20012;-72
2021/01/02 04:22:32;;;;;;;;;;;;;;;2.85;100.00;101252.69;5009774;28;20430;-71
2021/01/02 04:24:58;;;;;;;;;;;;;;;2.81;100.00;101254.66;5034534;28;19962;-71
2021/01/02 04:27:23;;;;;;;;;;;;;;;2.76;100.00;101254.09;5020391;28;19917;-72
2021/01/02 04:29:48;;;;;;;;;;;;;;;2.71;100.00;101250.91;5028808;28;19975;-71
2021/01/02 04:32:13;;;;;;;;;;;;;;;2.65;100.00;101260.00;5026008;28;19980;-72
2021/01/02 04:34:39;;;;;;;;;;;;;;;2.59;100.00;101255.94;5030709;28;19925;-71
2021/01/02 04:37:04;;;;;;;;;;;;;;;2.51;100.00;101254.72;5024442;28;20469;-71
2021/01/02 04:39:29;;;;;;;;;;;;;;;2.47;100.00;101261.09;5018719;28;19917;-71
2021/01/02 04:41:55;;;;;;;;;;;;;;;2.44;100.00;101256.88;4997863;28;20012;-75
2021/01/02 04:44:20;;;;;;;;;;;;;;;2.41;100.00;101259.69;5022111;28;19924;-71
2021/01/02 04:46:46;;;;;;;;;;;;;;;2.36;100.00;101259.09;5027745;28;19995;-71
2021/01/02 04:49:11;;;;;;;;;;;;;;;2.32;100.00;101260.19;5024922;28;19913;-71
2021/01/02 04:51:36;;;;;;;;;;;;;;;2.27;100.00;101257.81;5021539;28;19939;-72
2021/01/02 04:54:02;;;;;;;;;;;;;;;2.24;100.00;101266.75;5002473;28;19921;-71
2021/01/02 04:56:30;;;;;;;;;;;;;;;2.20;100.00;101264.41;5024830;28;19917;-72
2021/01/02 04:58:55;;;;;;;;;;;;;;;2.19;100.00;101267.97;5022783;28;19950;-71
2021/01/02 05:01:21;;;;;;;;;;;;;;;2.17;100.00;101269.84;5029596;28;20371;-74
2021/01/02 05:03:46;;;;;;;;;;;;;;;2.14;100.00;101262.97;4998624;28;20354;-73
2021/01/02 05:06:12;;;;;;;;;;;;;;;2.12;100.00;101268.31;5023129;28;19913;-71
2021/01/02 05:08:40;;;;;;;;;;;;;;;2.11;100.00;101265.78;5019243;28;20481;-72
2021/01/02 05:11:05;;;;;;;;;;;;;;;2.04;100.00;101272.31;5026488;28;19967;-71
2021/01/02 05:13:31;;;;;;;;;;;;;;;2.02;100.00;101268.94;5022850;28;19909;-71
2021/01/02 05:16:13;;;;;;;;;;;;;;;1.98;100.00;101273.50;4996008;28;20343;-71
2021/01/02 05:18:50;;;;;;;;;;;;;;;1.94;100.00;101274.63;5019408;28;19931;-75
2021/01/02 05:21:16;;;;;;;;;;;;;;;1.95;100.00;101277.16;5020375;28;19916;-72
2021/01/02 05:23:41;;;;;;;;;;;;;;;1.92;100.00;101282.59;5030614;28;20164;-77
2021/01/02 05:26:06;;;;;;;;;;;;;;;1.93;100.00;101280.84;5027252;28;20387;-71
2021/01/02 05:28:32;;;;;;;;;;;;;;;1.89;100.00;101281.94;5009094;28;19919;-71
2021/01/02 05:30:57;;;;;;;;;;;;;;;1.88;100.00;101291.63;5027735;28;19956;-76
2021/01/02 05:33:22;;;;;;;;;;;;;;;1.91;100.00;101283.53;5025113;28;19913;-73
2021/01/02 05:35:48;;;;;;;;;;;;;;;1.93;100.00;101288.72;5028746;28;19943;-71
2021/01/02 05:38:14;;;;;;;;;;;;;;;1.99;100.00;101288.38;5024821;28;19921;-73
2021/01/02 05:40:45;;;;;;;;;;;;;;;2.03;100.00;101284.63;5023210;28;19920;-71
2021/01/02 05:43:11;;;;;;;;;;;;;;;2.05;100.00;101293.31;5022054;28;19921;-71
2021/01/02 05:45:36;;;;;;;;;;;;;;;2.07;100.00;101294.06;5025492;28;19924;-71
2021/01/02 05:48:21;;;;;;;;;;;;;;;2.11;100.00;101292.09;5018558;28;19917;-70
2021/01/02 05:50:47;;;;;;;;;;;;;;;2.11;100.00;101286.84;5020512;28;20323;-75
2021/01/02 05:53:22;;;;;;;;;;;;;;;2.12;100.00;101289.38;5029027;28;19995;-76
2021/01/02 05:55:49;;;;;;;;;;;;;;;2.17;100.00;101291.78;5001788;28;19917;-70
2021/01/02 05:58:15;;;;;;;;;;;;;;;2.14;100.00;101286.66;5025820;28;20260;-77
2021/01/02 06:00:42;;;;;;;;;;;;;;;2.18;100.00;101292.59;5012606;28;19917;-71
2021/01/02 06:03:14;;;;;;;;;;;;;;;2.21;100.00;101289.81;5018326;28;19921;-71
2021/01/02 06:05:40;;;;;;;;;;;;;;;2.25;100.00;101284.28;5013397;28;19912;-74
2021/01/02 06:08:05;;;;;;;;;;;;;;;2.24;100.00;101287.00;5004077;28;19917;-71
2021/01/02 06:10:31;;;;;;;;;;;;;;;2.25;100.00;101297.44;5020700;28;20256;-71
2021/01/02 06:12:56;;;;;;;;;;;;;;;2.31;100.00;101293.59;5023968;28;19912;-71
2021/01/02 06:15:21;;;;;;;;;;;;;;;2.30;100.00;101297.16;5001366;28;20215;-71
2021/01/02 06:17:47;;;;;;;;;;;;;;;2.31;100.00;101298.88;5019764;28;19913;-71
2021/01/02 06:20:13;;;;;;;;;;;;;;;2.31;100.00;101301.50;5023817;28;19964;-72
2021/01/02 06:22:41;;;;;;;;;;;;;;;2.29;100.00;101296.34;5019782;28;19928;-71
2021/01/02 06:25:06;;;;;;;;;;;;;;;2.27;100.00;101297.34;5023965;28;19921;-71
2021/01/02 06:27:32;;;;;;;;;;;;;;;2.28;100.00;101302.53;5008896;28;20410;-71
2021/01/02 06:29:58;;;;;;;;;;;;;;;2.30;100.00;101299.81;5020579;28;19955;-71
2021/01/02 06:32:23;;;;;;;;;;;;;;;2.28;100.00;101304.31;5022549;28;19913;-74
2021/01/02 06:35:07;;;;;;;;;;;;;;;2.31;100.00;101305.94;5024078;28;19918;-70
2021/01/02 06:37:48;;;;;;;;;;;;;;;2.31;100.00;101308.56;5017602;28;19928;-71
2021/01/02 06:40:20;;;;;;;;;;;;;;;2.32;100.00;101304.97;5020815;28;20364;-74
2021/01/02 06:42:51;;;;;;;;;;;;;;;2.31;100.00;101311.19;5024162;28;20007;-71
2021/01/02 06:45:35;;;;;;;;;;;;;;;2.33;100.00;101314.56;5005177;28;19928;-74
2021/01/02 06:48:13;;;;;;;;;;;;;;;2.35;100.00;101317.97;5016753;28;19936;-70
2021/01/02 06:50:38;;;;;;;;;;;;;;;2.38;100.00;101320.44;5021616;28;19960;-71
2021/01/02 06:53:19;;;;;;;;;;;;;;;2.39;100.00;101317.69;5025683;28;20073;-71
2021/01/02 06:55:45;;;;;;;;;;;;;;;2.39;100.00;101316.88;5019973;28;19921;-75
2021/01/02 06:58:13;;;;;;;;;;;;;;;2.41;100.00;101315.00;5022635;28;20738;-72
2021/01/02 07:00:39;;;;;;;;;;;;;;;2.38;100.00;101316.00;5023004;28;19976;-71
2021/01/02 07:03:04;;;;;;;;;;;;;;;2.38;100.00;101326.53;5021139;28;19953;-71
2021/01/02 07:05:42;;;;;;;;;;;;;;;2.38;100.00;101323.91;5027714;28;20112;-71
2021/01/02 07:08:27;;;;;;;;;;;;;;;2.37;100.00;101324.88;5031234;28;19917;-71
2021/01/02 07:11:13;;;;;;;;;;;;;;;2.37;100.00;101324.00;5022254;28;19921;-71
2021/01/02 07:13:38;;;;;;;;;;;;;;;2.32;100.00;101326.03;5018169;28;19913;-71
2021/01/02 07:16:23;;;;;;;;;;;;;;;2.31;100.00;101321.75;5025908;28;19927;-71
2021/01/02 07:18:48;;;;;;;;;;;;;;;2.33;100.00;101311.94;5023600;28;19932;-74
2021/01/02 07:21:32;;;;;;;;;;;;;;;2.31;100.00;101319.09;4989661;28;19947;-72
2021/01/02 07:24:18;;;;;;;;;;;;;;;2.32;100.00;101324.28;5023746;28;20015;-71
2021/01/02 07:26:43;;;;;;;;;;;;;;;2.34;100.00;101318.91;5017230;28;19909;-71
2021/01/02 07:29:16;;;;;;;;;;;;;;;2.31;100.00;101327.84;5024800;28;19939;-71
2021/01/02 07:31:41;;;;;;;;;;;;;;;2.30;100.00;101326.13;5029459;28;19913;-71
2021/01/02 07:34:14;;;;;;;;;;;;;;;2.34;100.00;101334.72;5018916;28;20320;-71
2021/01/02 07:36:40;;;;;;;;;;;;;;;2.36;100.00;101332.84;5022691;28;19932;-69
2021/01/02 07:39:05;;;;;;;;;;;;;;;2.34;100.00;101335.56;5021794;28;19916;-75
2021/01/02 07:41:30;;;;;;;;;;;;;;;2.34;100.00;101346.09;5035879;28;19909;-72
2021/01/02 07:43:55;;;;;;;;;;;;;;;2.34;100.00;101350.50;5039675;28;19916;-71
2021/01/02 07:46:21;;;;;;;;;;;;;;;2.36;100.00;101346.88;5015431;28;19913;-74
2021/01/02 07:48:53;;;;;;;;;;;;;;;2.42;100.00;101349.16;5029716;28;20410;-71
2021/01/02 07:51:18;;;;;;;;;;;;;;;2.42;100.00;101356.22;5019254;28;19920;-71
2021/01/02 07:53:43;;;;;;;;;;;;;;;2.42;100.00;101359.69;5033561;28;19940;-71
2021/01/02 07:56:09;;;;;;;;;;;;;;;2.47;100.00;101361.22;5016428;28;19940;-71
2021/01/02 07:58:34;;;;;;;;;;;;;;;2.50;100.00;101361.03;5026190;28;19913;-70
2021/01/02 08:01:09;;;;;;;;;;;;;;;2.53;100.00;101363.47;5031065;28;20367;-71
2021/01/02 08:03:34;;;;;;;;;;;;;;;2.47;100.00;101372.59;5034691;28;19916;-71
2021/01/02 08:05:59;;;;;;;;;;;;;;;2.51;100.00;101373.28;5013123;28;19913;-72
2021/01/02 08:08:25;;;;;;;;;;;;;;;2.49;100.00;101378.63;5012974;28;19912;-71
2021/01/02 08:10:52;;;;;;;;;;;;;;;2.53;100.00;101385.41;5029304;28;19925;-71
2021/01/02 08:13:18;;;;;;;;;;;;;;;2.55;100.00;101382.69;5033167;28;20008;-71
2021/01/02 08:15:43;;;;;;;;;;;;;;;2.58;100.00;101388.63;5030564;28;20007;-75
2021/01/02 08:18:09;;;;;;;;;;;;;;;2.60;100.00;101393.81;5033717;28;20445;-71
2021/01/02 08:20:34;;;;;;;;;;;;;;;2.64;100.00;101394.50;5007279;28;19917;-71
2021/01/02 08:23:09;;;;;;;;;;;;;;;2.66;100.00;101400.53;5023724;28;19922;-71
2021/01/02 08:25:34;;;;;;;;;;;;;;;2.71;100.00;101401.97;5021497;28;19967;-72
2021/01/02 08:27:59;;;;;;;;;;;;;;;2.75;100.00;101398.22;5037560;28;19941;-72
2021/01/02 08:30:25;;;;;;;;;;;;;;;2.76;100.00;101399.06;5023731;28;19932;-76
2021/01/02 08:32:51;;;;;;;;;;;;;;;2.82;100.00;101388.16;4994548;28;19909;-71
2021/01/02 08:35:20;;;;;;;;;;;;;;;2.88;100.00;101387.78;5019117;28;19977;-71
2021/01/02 08:37:46;;;;;;;;;;;;;;;2.91;100.00;101397.34;5017686;28;19923;-71
2021/01/02 08:40:13;;;;;;;;;;;;;;;2.95;100.00;101393.56;5018842;28;20031;-70
2021/01/02 08:42:38;;;;;;;;;;;;;;;2.95;100.00;101393.56;5024722;28;19905;-70
2021/01/02 08:45:07;;;;;;;;;;;;;;;2.95;100.00;101388.28;5023622;28;19963;-70
2021/01/02 08:47:33;;;;;;;;;;;;;;;2.94;100.00;101396.28;5002844;28;19944;-70
2021/01/02 08:50:06;;;;;;;;;;;;;;;2.96;100.00;101399.69;5022688;28;20382;-71
2021/01/02 08:52:35;;;;;;;;;;;;;;;3.02;100.00;101394.91;5022384;28;20004;-71
2021/01/02 08:55:10;;;;;;;;;;;;;;;3.05;100.00;101401.78;5015668;28;19921;-70
2021/01/02 08:57:36;;;;;;;;;;;;;;;3.07;100.00;101402.53;5024578;28;19916;-70
2021/01/02 09:00:14;;;;;;;;;;;;;;;3.12;100.00;101404.91;5024202;28;19913;-72
2021/01/02 09:02:49;;;;;;;;;;;;;;;3.18;100.00;101404.56;5013805;28;20376;-71
2021/01/02 09:05:18;;;;;;;;;;;;;;;3.16;100.00;101409.91;5021834;28;19912;-71
2021/01/02 09:07:53;;;;;;;;;;;;;;;3.18;100.00;101409.84;4990185;28;19913;-79
2021/01/02 09:10:23;;;;;;;;;;;;;;;3.20;100.00;101411.44;5023324;28;20290;-70
2021/01/02 09:13:04;;;;;;;;;;;;;;;3.22;100.00;101408.69;5018751;28;19914;-70
2021/01/02 09:15:49;;;;;;;;;;;;;;;3.22;100.00;101414.81;5018832;28;19979;-78
2021/01/02 09:18:18;;;;;;;;;;;;;;;3.27;100.00;101411.91;5025157;28;20434;-71
2021/01/02 09:20:43;;;;;;;;;;;;;;;3.29;100.00;101411.81;5003182;28;19956;-71
2021/01/02 09:23:08;;;;;;;;;;;;;;;3.26;100.00;101404.94;5024599;28;19952;-70
2021/01/02 09:25:34;;;;;;;;;;;;;;;3.32;100.00;101419.53;5022448;28;19925;-71
2021/01/02 09:28:12;;;;;;;;;;;;;;;3.33;100.00;101411.53;5019869;28;20525;-71
2021/01/02 09:30:37;;;;;;;;;;;;;;;3.40;100.00;101406.72;5023630;28;19925;-78
2021/01/02 09:33:02;;;;;;;;;;;;;;;3.38;100.00;101408.63;5006401;28;19917;-71
2021/01/02 09:35:28;;;;;;;;;;;;;;;3.41;100.00;101407.59;5020212;28;19929;-71
2021/01/02 09:37:53;;;;;;;;;;;;;;;3.44;100.00;101420.63;5009125;28;19921;-78
2021/01/02 09:40:19;;;;;;;;;;;;;;;3.48;100.00;101417.69;5023586;28;19920;-78
2021/01/02 09:42:45;;;;;;;;;;;;;;;3.55;100.00;101412.88;5022568;28;19921;-71
2021/01/02 09:45:10;;;;;;;;;;;;;;;3.61;100.00;101414.31;5018971;28;19943;-70
2021/01/02 09:47:36;;;;;;;;;;;;;;;3.65;100.00;101414.00;5022942;28;19917;-71
2021/01/02 09:50:01;;;;;;;;;;;;;;;3.71;100.00;101423.34;5023477;28;19917;-71
2021/01/02 09:52:27;;;;;;;;;;;;;;;3.67;99.87;101421.81;5004516;28;19925;-81
2021/01/02 09:54:52;;;;;;;;;;;;;;;3.74;99.52;101440.78;5022165;28;19917;-71
2021/01/02 09:57:17;;;;;;;;;;;;;;;3.71;98.92;101425.16;5021148;28;19953;-71
2021/01/02 09:59:43;;;;;;;;;;;;;;;3.61;99.29;101424.84;5020236;28;20558;-71
2021/01/02 10:02:08;;;;;;;;;;;;;;;3.55;99.75;101441.06;5013655;28;19963;-71
2021/01/02 10:04:33;;;;;;;;;;;;;;;3.54;100.00;101432.31;5020771;28;20288;-71
2021/01/02 10:06:59;;;;;;;;;;;;;;;3.58;100.00;101436.47;5007887;28;20012;-71
2021/01/02 10:09:24;;;;;;;;;;;;;;;3.59;100.00;101432.88;5018826;28;20018;-71
2021/01/02 10:11:49;;;;;;;;;;;;;;;3.57;100.00;101434.75;5014889;28;19925;-72
2021/01/02 10:14:15;;;;;;;;;;;;;;;3.64;100.00;101438.72;5018590;28;19960;-72
2021/01/02 10:16:40;;;;;;;;;;;;;;;3.64;100.00;101444.00;5021765;28;19918;-78
2021/01/02 10:19:07;;;;;;;;;;;;;;;3.56;100.00;101443.63;5006300;28;19913;-76
2021/01/02 10:21:32;;;;;;;;;;;;;;;3.50;100.00;101443.97;5004982;28;20276;-76
2021/01/02 10:23:58;;;;;;;;;;;;;;;3.49;100.00;101443.13;5015120;28;19913;-80
2021/01/02 10:26:23;;;;;;;;;;;;;;;3.55;100.00;101441.06;5015505;28;19920;-76
2021/01/02 10:28:48;;;;;;;;;;;;;;;3.06;100.00;101356.84;5023199;28;19909;-76
2021/01/02 10:31:23;;;;;;;;;;;;;;;3.15;100.00;101354.63;5017419;28;19920;-80
2021/01/02 10:33:48;;;;;;;;;;;;;;;3.74;100.00;101438.13;5005886;28;19917;-76
2021/01/02 10:36:13;;;;;;;;;;;;;;;3.75;100.00;101439.84;5021277;28;20319;-76
2021/01/02 10:38:38;;;;;;;;;;;;;;;3.69;100.00;101433.16;5020102;28;19917;-79
2021/01/02 10:41:04;;;;;;;;;;;;;;;3.63;100.00;101441.47;5020111;28;19924;-79
2021/01/02 10:43:29;;;;;;;;;;;;;;;3.70;100.00;101445.41;5016936;28;19914;-80
2021/01/02 10:45:54;;;;;;;;;;;;;;;3.78;100.00;101435.25;5018239;28;20018;-80
2021/01/02 10:48:20;;;;;;;;;;;;;;;3.78;100.00;101439.66;5015372;28;19917;-80
2021/01/02 10:50:45;;;;;;;;;;;;;;;3.79;100.00;101446.63;5022850;28;19917;-78
2021/01/02 10:53:10;;;;;;;;;;;;;;;3.83;100.00;101433.16;5016767;28;19974;-79
2021/01/02 10:55:36;;;;;;;;;;;;;;;3.89;99.84;101436.38;5021563;28;20366;-80
2021/01/02 10:58:01;;;;;;;;;;;;;;;3.92;99.54;101434.38;5007835;28;19917;-80
2021/01/02 11:00:26;;;;;;;;;;;;;;;3.87;99.26;101441.72;5020405;28;20354;-80
2021/01/02 11:02:53;;;;;;;;;;;;;;;3.85;99.32;101433.06;5003152;28;20360;-80
2021/01/02 11:05:19;;;;;;;;;;;;;;;3.81;99.64;101429.75;5020649;28;19975;-79
2021/01/02 11:07:44;;;;;;;;;;;;;;;3.78;99.58;101431.75;5018307;28;20347;-79
2021/01/02 11:10:09;;;;;;;;;;;;;;;3.73;99.28;101431.19;5019106;28;20395;-80
2021/01/02 11:12:35;;;;;;;;;;;;;;;3.73;100.00;101428.56;5000928;28;19917;-79
2021/01/02 11:15:00;;;;;;;;;;;;;;;3.70;99.46;101426.09;5018595;28;20019;-80
2021/01/02 11:17:26;;;;;;;;;;;;;;;3.69;100.00;101430.50;5015606;28;19913;-79
2021/01/02 11:19:52;;;;;;;;;;;;;;;3.78;100.00;101429.09;5015647;28;20588;-80
2021/01/02 11:22:17;;;;;;;;;;;;;;;3.82;99.37;101434.09;5015054;28;19917;-80
2021/01/02 11:24:43;;;;;;;;;;;;;;;3.93;99.80;101430.78;5015335;28;20363;-80
2021/01/02 11:27:08;;;;;;;;;;;;;;;3.92;99.67;101425.63;5020939;28;20703;-80
2021/01/02 11:29:34;;;;;;;;;;;;;;;3.93;99.16;101424.69;5017671;28;19956;-80
2021/01/02 11:31:59;;;;;;;;;;;;;;;3.90;98.98;101419.59;5015537;28;19939;-80
2021/01/02 11:34:24;;;;;;;;;;;;;;;3.87;99.32;101425.03;4980227;28;19917;-79
2021/01/02 11:36:51;;;;;;;;;;;;;;;3.94;98.94;101424.56;5001917;28;19944;-80
2021/01/02 11:39:16;;;;;;;;;;;;;;;3.94;98.61;101421.94;5005621;28;20402;-81
2021/01/02 11:41:42;;;;;;;;;;;;;;;3.90;98.64;101415.13;5017387;28;19917;-79
2021/01/02 11:44:08;;;;;;;;;;;;;;;3.90;99.69;101416.94;5020328;28;20023;-79
2021/01/02 11:46:34;;;;;;;;;;;;;;;3.95;99.05;101414.84;5016803;28;19928;-79
2021/01/02 11:49:00;;;;;;;;;;;;;;;4.04;99.21;101414.28;5016307;28;20223;-79
2021/01/02 11:51:25;;;;;;;;;;;;;;;4.11;98.13;101415.59;5013957;28;19983;-79
2021/01/02 11:53:50;;;;;;;;;;;;;;;4.15;98.39;101413.59;5015061;28;19924;-80
2021/01/02 11:56:22;;;;;;;;;;;;;;;4.18;98.13;101413.41;5021544;28;19921;-79
2021/01/02 11:58:49;;;;;;;;;;;;;;;4.15;99.28;101405.66;4993513;28;19986;-80
2021/01/02 12:01:14;;;;;;;;;;;;;;;4.19;99.40;101407.16;5018190;28;19956;-79
2021/01/02 12:03:39;;;;;;;;;;;;;;;4.24;99.10;101410.38;5014048;28;20107;-80
2021/01/02 12:06:04;;;;;;;;;;;;;;;4.18;97.57;101396.72;5024338;28;20012;-80
2021/01/02 12:08:30;;;;;;;;;;;;;;;4.27;97.50;101394.34;5023360;28;19923;-79
2021/01/02 12:10:55;;;;;;;;;;;;;;;4.23;96.99;101390.19;5023692;28;19917;-84
2021/01/02 12:13:21;;;;;;;;;;;;;;;4.21;97.01;101393.84;5023719;28;20003;-81
2021/01/02 12:15:48;;;;;;;;;;;;;;;4.13;97.72;101389.09;5027852;28;20023;-79
2021/01/02 12:18:13;;;;;;;;;;;;;;;4.00;98.33;101389.00;5017583;28;19913;-79
2021/01/02 12:20:38;;;;;;;;;;;;;;;3.98;99.59;101388.25;4990172;28;20459;-77
2021/01/02 12:23:04;;;;;;;;;;;;;;;4.02;99.86;101383.63;5024106;28;19932;-77
2021/01/02 12:25:29;;;;;;;;;;;;;;;4.14;100.00;101383.69;5023471;28;19966;-77
2021/01/02 12:27:58;;;;;;;;;;;;;;;4.18;99.69;101386.16;5028976;28;19964;-81
2021/01/02 12:30:23;;;;;;;;;;;;;;;4.23;99.88;101392.84;4996030;28;19925;-79
2021/01/02 12:32:49;;;;;;;;;;;;;;;4.33;98.79;101386.94;5029679;28;19932;-81
2021/01/02 12:35:14;;;;;;;;;;;;;;;4.39;98.56;101386.56;5024563;28;19975;-76
2021/01/02 12:37:39;;;;;;;;;;;;;;;4.43;97.20;101388.03;5032032;28;19917;-71
2021/01/02 12:42:08;;;;;;;83.68;38.03;;;;;;;4.47;97.23;101384.25;5080984;27;21331;-82
2021/01/02 12:44:33;;;;;;;108.25;38.72;;;;;;;4.41;96.96;101380.22;5070697;28;20032;-79